createdAt,value
2019-06-20T04:48:53.303Z,51.03
2019-06-20T04:53:58.405Z,35.52
2019-06-20T04:59:04.931Z,29.15
2019-06-20T05:04:10.610Z,26.93
2019-06-20T05:09:15.953Z,21.70
2019-06-20T05:14:21.304Z,28.35
2019-06-20T05:19:26.281Z,33.45
2019-06-20T05:24:31.451Z,26.70
2019-06-20T05:29:36.682Z,23.07
2019-06-20T05:34:41.909Z,24.55
2019-06-20T05:39:47.874Z,25.82
2019-06-20T05:44:52.966Z,29.57
2019-06-20T05:49:58.131Z,25.72
2019-06-20T05:55:03.334Z,24.77
2019-06-20T06:00:08.741Z,21.62
2019-06-20T06:05:13.981Z,23.62
2019-06-20T06:10:19.176Z,24.47
2019-06-20T06:15:24.901Z,28.05
2019-06-20T06:20:31.051Z,24.85
2019-06-20T06:25:36.181Z,26.68
2019-06-20T06:30:42.455Z,26.35
2019-06-20T06:35:47.521Z,27.32
2019-06-20T06:40:52.701Z,28.73
2019-06-20T06:45:57.722Z,30.27
2019-06-20T06:51:02.892Z,31.30
2019-06-20T06:56:07.922Z,28.85
2019-06-20T07:01:13.000Z,30.32
2019-06-20T07:06:18.125Z,26.55
2019-06-20T07:11:23.258Z,23.55
2019-06-20T07:16:28.390Z,26.97
2019-06-20T07:21:33.437Z,28.95
2019-06-20T07:26:38.475Z,28.23
2019-06-20T07:31:43.532Z,31.12
2019-06-20T07:36:48.537Z,26.62
2019-06-20T07:41:53.574Z,24.80
2019-06-20T07:46:58.680Z,26.97
2019-06-20T07:52:03.739Z,27.93
2019-06-20T07:57:08.800Z,26.52
2019-06-20T08:02:13.802Z,24.72
2019-06-20T08:07:18.958Z,26.75
2019-06-20T08:12:24.033Z,26.60
2019-06-20T08:17:35.337Z,27.22
2019-06-20T08:22:35.777Z,26.75
2019-06-20T08:27:50.480Z,27.40
2019-06-20T08:32:56.156Z,28.75
2019-06-20T08:38:03.651Z,25.75
2019-06-20T08:43:09.839Z,27.17
2019-06-20T08:48:15.041Z,24.40
2019-06-20T08:53:20.117Z,24.32
2019-06-20T08:58:25.269Z,23.92
2019-06-20T09:03:31.388Z,25.23
2019-06-20T09:08:36.705Z,20.50
2019-06-20T09:13:42.137Z,17.77
2019-06-20T09:18:47.654Z,15.72
2019-06-20T09:23:54.116Z,15.40
2019-06-20T09:28:59.408Z,14.53
2019-06-20T09:34:05.447Z,13.83
2019-06-20T09:39:10.833Z,14.80
2019-06-20T09:44:15.976Z,12.80
2019-06-20T09:49:20.927Z,11.80
2019-06-20T09:54:25.862Z,10.80
2019-06-20T09:59:31.110Z,7.67
2019-06-20T10:04:36.136Z,3.35
2019-06-20T10:09:41.218Z,6.20
2019-06-20T10:14:48.075Z,1.57
2019-06-20T10:19:54.154Z,1.62
2019-06-20T10:24:59.139Z,2.67
2019-06-20T10:30:14.046Z,3.83
2019-06-20T10:35:12.103Z,4.20
2019-06-20T10:40:19.393Z,4.58
2019-06-20T10:45:25.530Z,3.65
2019-06-20T10:50:30.667Z,2.67
2019-06-20T10:55:35.800Z,5.15
2019-06-20T11:00:41.798Z,3.75
2019-06-20T11:05:48.153Z,3.45
2019-06-20T11:10:53.421Z,3.98
2019-06-20T11:15:58.633Z,3.60
2019-06-20T11:21:03.746Z,5.62
2019-06-20T11:26:09.252Z,5.47
2019-06-20T11:31:14.433Z,6.53
2019-06-20T11:36:19.500Z,5.55
2019-06-20T11:41:25.817Z,6.15
2019-06-20T11:46:30.970Z,6.35
2019-06-20T11:51:37.499Z,4.45
2019-06-20T11:56:42.648Z,6.37
2019-06-20T12:01:48.999Z,7.42
2019-06-20T12:06:54.313Z,3.35
2019-06-20T12:11:59.459Z,6.58
2019-06-20T12:17:04.619Z,5.67
2019-06-20T12:22:09.940Z,5.25
2019-06-20T12:27:15.335Z,6.92
2019-06-20T12:32:21.718Z,6.75
2019-06-20T12:37:26.918Z,7.03
2019-06-20T12:42:31.826Z,5.70
2019-06-20T12:47:38.299Z,5.78
2019-06-20T12:52:45.370Z,5.67
2019-06-20T12:57:51.068Z,6.22
2019-06-20T13:02:56.074Z,5.87
2019-06-20T13:08:01.217Z,4.80
2019-06-20T13:13:06.309Z,8.08
2019-06-20T13:18:11.483Z,6.47
2019-06-20T13:23:44.973Z,4.03
2019-06-20T13:29:03.190Z,6.67
2019-06-20T13:33:56.987Z,5.92
2019-06-20T13:39:02.018Z,6.72
2019-06-20T13:44:09.430Z,5.25
2019-06-20T13:49:14.577Z,4.40
2019-06-20T13:54:19.669Z,5.12
2019-06-20T13:59:24.714Z,6.12
2019-06-20T14:04:30.984Z,6.47
2019-06-20T14:09:35.908Z,6.40
2019-06-20T14:14:43.913Z,6.95
2019-06-20T14:19:49.055Z,7.30
2019-06-20T14:24:55.473Z,7.65
2019-06-20T14:30:00.627Z,6.90
2019-06-20T14:35:07.305Z,8.60
2019-06-20T14:40:13.093Z,8.85
2019-06-20T14:45:18.554Z,8.43
2019-06-20T14:50:23.811Z,10.32
2019-06-20T14:55:28.998Z,11.35
2019-06-20T15:00:34.072Z,12.93
2019-06-20T15:05:39.264Z,11.63
2019-06-20T15:10:46.541Z,11.75
2019-06-20T15:15:51.147Z,11.75
2019-06-20T15:20:59.260Z,9.70
2019-06-20T15:26:02.907Z,11.83
2019-06-20T15:31:07.758Z,12.07
2019-06-20T15:36:12.981Z,11.55
2019-06-20T15:41:17.995Z,10.32
2019-06-20T15:46:23.133Z,11.00
2019-06-20T15:51:28.139Z,13.62
2019-06-20T15:56:33.064Z,14.75
2019-06-20T16:01:38.077Z,10.78
2019-06-20T16:06:42.942Z,12.15
2019-06-20T16:11:48.286Z,8.98
2019-06-20T16:16:54.477Z,9.53
2019-06-20T16:21:59.488Z,9.93
2019-06-20T16:27:04.493Z,9.75
2019-06-20T16:32:09.878Z,11.33
2019-06-20T16:37:15.020Z,9.50
2019-06-20T16:42:20.026Z,7.37
2019-06-20T16:47:25.091Z,9.08
2019-06-20T16:52:30.139Z,7.42
2019-06-20T16:57:35.491Z,5.50
2019-06-20T17:02:40.621Z,4.33
2019-06-20T17:07:45.740Z,3.90
2019-06-20T17:12:50.779Z,5.12
2019-06-20T17:17:55.781Z,6.22
2019-06-20T17:23:01.181Z,4.30
2019-06-20T17:28:06.265Z,3.87
2019-06-20T17:33:11.213Z,3.17
2019-06-20T17:38:16.227Z,5.78
2019-06-20T17:43:21.183Z,6.83
2019-06-20T17:48:27.390Z,4.60
2019-06-20T17:53:32.305Z,7.42
2019-06-20T17:58:37.357Z,5.30
2019-06-20T18:03:42.534Z,10.20
2019-06-20T18:08:47.484Z,7.12
2019-06-20T18:13:52.488Z,11.10
2019-06-20T18:18:57.588Z,8.50
2019-06-20T18:24:02.650Z,6.22
2019-06-20T18:29:07.604Z,6.78
2019-06-20T18:34:12.541Z,8.28
2019-06-20T18:39:17.724Z,7.80
2019-06-20T18:44:22.785Z,4.95
2019-06-20T18:49:28.287Z,7.78
2019-06-20T18:54:33.305Z,7.40
2019-06-20T18:59:38.278Z,10.15
2019-06-20T19:04:49.659Z,8.00
2019-06-20T19:09:50.134Z,8.30
2019-06-20T19:14:55.047Z,5.67
2019-06-20T19:20:00.080Z,6.58
2019-06-20T19:25:05.826Z,4.97
2019-06-20T19:30:11.716Z,11.50
2019-06-20T19:35:18.501Z,9.08
2019-06-20T19:40:26.726Z,7.90
2019-06-20T19:45:31.990Z,8.58
2019-06-20T19:50:37.086Z,8.45
2019-06-20T19:55:42.526Z,9.13
2019-06-20T20:00:48.653Z,6.87
2019-06-20T20:05:57.976Z,8.40
2019-06-20T20:11:01.223Z,7.87
2019-06-20T20:16:06.466Z,8.03
2019-06-20T20:21:11.814Z,12.20
2019-06-20T20:26:17.970Z,7.55
2019-06-20T20:31:23.911Z,10.53
2019-06-20T20:36:32.807Z,7.15
2019-06-20T20:41:37.991Z,7.25
2019-06-20T20:46:42.979Z,7.90
2019-06-20T20:51:47.895Z,12.10
2019-06-20T20:56:52.834Z,12.90
2019-06-20T21:01:58.073Z,8.30
2019-06-20T21:07:03.187Z,11.20
2019-06-20T21:12:08.565Z,7.72
2019-06-20T21:17:13.961Z,15.08
2019-06-20T21:22:19.017Z,7.40
2019-06-20T21:27:24.215Z,10.93
2019-06-20T21:32:29.535Z,12.45
2019-06-20T21:37:34.622Z,9.28
2019-06-20T21:42:40.720Z,12.15
2019-06-20T21:47:45.957Z,9.88
2019-06-20T21:52:50.887Z,7.80
2019-06-20T21:57:55.881Z,10.95
2019-06-20T22:03:01.110Z,15.30
2019-06-20T22:08:06.368Z,11.38
2019-06-20T22:13:11.452Z,11.68
2019-06-20T22:18:16.703Z,11.35
2019-06-20T22:23:21.811Z,15.88
2019-06-20T22:28:26.912Z,8.50
2019-06-20T22:33:31.950Z,13.62
2019-06-20T22:38:36.900Z,13.53
2019-06-20T22:43:41.997Z,10.43
2019-06-20T22:48:46.955Z,12.40
2019-06-20T22:53:51.941Z,12.43
2019-06-20T22:58:57.212Z,11.65
2019-06-20T23:04:02.240Z,12.40
2019-06-20T23:09:08.257Z,16.75
2019-06-20T23:14:13.557Z,12.47
2019-06-20T23:19:18.644Z,12.70
2019-06-20T23:24:23.691Z,10.70
2019-06-20T23:29:28.961Z,10.10
2019-06-20T23:34:34.041Z,13.05
2019-06-20T23:39:39.101Z,10.25
2019-06-20T23:44:44.270Z,10.70
2019-06-20T23:49:49.485Z,14.65
2019-06-20T23:54:54.479Z,13.78
2019-06-20T23:59:59.637Z,15.03
